createdAt,value
2023-11-12T00:00:55.522Z,0.00
2023-11-12T00:01:55.489Z,0.00
2023-11-12T00:02:56.875Z,0.00
2023-11-12T00:03:55.479Z,0.00
2023-11-12T00:04:56.823Z,0.00
2023-11-12T00:05:56.114Z,0.00
2023-11-12T00:06:55.371Z,0.00
2023-11-12T00:07:55.543Z,0.00
2023-11-12T00:08:55.328Z,0.00
2023-11-12T00:09:55.333Z,0.00
2023-11-12T00:10:56.107Z,0.00
2023-11-12T00:11:55.302Z,0.00
2023-11-12T00:12:55.296Z,0.00
2023-11-12T00:13:56.012Z,0.00
2023-11-12T00:14:55.289Z,0.00
2023-11-12T00:15:56.693Z,0.00
2023-11-12T00:16:55.999Z,0.00
2023-11-12T00:17:55.266Z,0.00
2023-11-12T00:18:56.619Z,0.00
2023-11-12T00:19:55.244Z,0.00
2023-11-12T00:20:55.208Z,0.00
2023-11-12T00:21:55.897Z,0.00
2023-11-12T00:22:55.264Z,0.00
2023-11-12T00:23:56.589Z,0.00
2023-11-12T00:24:55.887Z,0.00
2023-11-12T00:25:55.176Z,0.00
2023-11-12T00:26:56.520Z,0.00
2023-11-12T00:27:55.088Z,0.00
2023-11-12T00:28:55.725Z,0.00
2023-11-12T00:29:55.088Z,0.00
2023-11-12T00:30:55.026Z,0.00
2023-11-12T00:31:55.838Z,0.00
2023-11-12T00:32:55.180Z,0.00
2023-11-12T00:33:55.008Z,0.00
2023-11-12T00:34:55.528Z,0.00
2023-11-12T00:35:54.965Z,0.00
2023-11-12T00:36:55.537Z,0.00
2023-11-12T00:37:55.926Z,0.00
2023-11-12T00:38:54.980Z,0.00
2023-11-12T00:39:55.573Z,0.00
2023-11-12T00:40:54.929Z,0.00
2023-11-12T00:41:55.588Z,0.00
2023-11-12T00:42:55.171Z,0.00
2023-11-12T00:43:54.933Z,0.00
2023-11-12T00:44:56.264Z,0.00
2023-11-12T00:45:54.867Z,0.00
2023-11-12T00:46:54.852Z,0.00
2023-11-12T00:47:54.886Z,0.00
2023-11-12T00:48:54.792Z,0.00
2023-11-12T00:49:54.833Z,0.00
2023-11-12T00:50:54.771Z,0.00
2023-11-12T00:51:54.765Z,0.00
2023-11-12T00:52:54.857Z,0.00
2023-11-12T00:53:54.730Z,0.00
2023-11-12T00:54:54.885Z,0.00
2023-11-12T00:55:54.761Z,0.00
2023-11-12T00:56:54.718Z,0.00
2023-11-12T00:57:54.866Z,0.00
2023-11-12T00:58:54.914Z,0.00
2023-11-12T00:59:54.649Z,0.00
2023-11-12T01:00:55.375Z,0.00
2023-11-12T01:01:56.693Z,0.00
2023-11-12T01:02:55.397Z,0.00
2023-11-12T01:03:56.133Z,0.00
2023-11-12T01:04:55.317Z,0.00
2023-11-12T01:05:54.599Z,0.00
2023-11-12T01:06:54.977Z,0.00
2023-11-12T01:07:54.593Z,0.00
2023-11-12T01:08:55.944Z,0.00
2023-11-12T01:09:55.251Z,0.00
2023-11-12T01:10:54.569Z,0.00
2023-11-12T01:11:54.505Z,0.00
2023-11-12T01:12:54.495Z,0.00
2023-11-12T01:13:54.490Z,0.00
2023-11-12T01:14:56.933Z,0.00
2023-11-12T01:15:54.488Z,0.00
2023-11-12T01:16:54.437Z,0.00
2023-11-12T01:17:55.212Z,0.00
2023-11-12T01:18:54.434Z,0.00
2023-11-12T01:19:54.391Z,0.00
2023-11-12T01:20:54.445Z,0.00
2023-11-12T01:21:54.477Z,0.00
2023-11-12T01:22:54.339Z,0.00
2023-11-12T01:23:54.337Z,0.00
2023-11-12T01:24:54.490Z,0.00
2023-11-12T01:25:55.023Z,0.00
2023-11-12T01:26:54.315Z,0.00
2023-11-12T01:27:55.700Z,0.00
2023-11-12T01:28:54.958Z,0.00
2023-11-12T01:29:54.301Z,0.00
2023-11-12T01:30:54.289Z,0.00
2023-11-12T01:31:54.956Z,0.00
2023-11-12T01:32:55.639Z,0.00
2023-11-12T01:33:54.222Z,0.00
2023-11-12T01:34:54.186Z,0.00
2023-11-12T01:35:56.553Z,0.00
2023-11-12T01:36:54.193Z,0.00
2023-11-12T01:37:55.550Z,0.00
2023-11-12T01:38:54.824Z,0.00
2023-11-12T01:39:54.780Z,0.00
2023-11-12T01:40:54.153Z,0.00
2023-11-12T01:41:54.087Z,0.00
2023-11-12T01:42:54.893Z,0.00
2023-11-12T01:43:55.481Z,0.00
2023-11-12T01:44:54.772Z,0.00
2023-11-12T01:45:54.053Z,0.00
2023-11-12T01:46:54.025Z,0.00
2023-11-12T01:47:54.079Z,0.00
2023-11-12T01:48:54.652Z,0.00
2023-11-12T01:49:54.523Z,0.00
2023-11-12T01:50:53.959Z,0.00
2023-11-12T01:51:54.699Z,0.00
2023-11-12T01:52:53.965Z,0.00
2023-11-12T01:53:53.930Z,0.00
2023-11-12T01:54:54.525Z,0.00
2023-11-12T01:55:53.912Z,0.00
2023-11-12T01:56:54.160Z,0.00
2023-11-12T01:57:53.859Z,0.00
2023-11-12T01:58:53.879Z,0.00
2023-11-12T01:59:54.524Z,0.00
2023-11-12T02:00:53.891Z,0.00
2023-11-12T02:01:53.851Z,0.00
2023-11-12T02:02:53.875Z,0.00
2023-11-12T02:03:53.865Z,0.00
2023-11-12T02:04:54.585Z,0.00
2023-11-12T02:05:54.548Z,0.00
2023-11-12T02:06:53.785Z,0.00
2023-11-12T02:07:54.709Z,0.00
2023-11-12T02:08:53.776Z,0.00
2023-11-12T02:09:54.471Z,0.00
2023-11-12T02:10:54.426Z,0.00
2023-11-12T02:11:55.089Z,0.00
2023-11-12T02:12:53.851Z,0.00
2023-11-12T02:13:53.882Z,0.00
2023-11-12T02:14:53.910Z,0.00
2023-11-12T02:15:53.637Z,0.00
2023-11-12T02:16:53.618Z,0.00
2023-11-12T02:17:53.648Z,0.00
2023-11-12T02:18:54.308Z,0.00
2023-11-12T02:19:53.588Z,0.00
2023-11-12T02:20:53.571Z,0.00
2023-11-12T02:21:53.578Z,0.00
2023-11-12T02:22:53.680Z,0.00
2023-11-12T02:23:53.575Z,0.00
2023-11-12T02:24:53.506Z,0.00
2023-11-12T02:25:54.311Z,0.00
2023-11-12T02:26:53.493Z,0.00
2023-11-12T02:27:53.511Z,0.00
2023-11-12T02:28:54.869Z,0.00
2023-11-12T02:29:56.152Z,0.00
2023-11-12T02:30:53.566Z,0.00
2023-11-12T02:31:53.413Z,0.00
2023-11-12T02:32:53.478Z,0.00
2023-11-12T02:33:53.454Z,0.00
2023-11-12T02:34:53.372Z,0.00
2023-11-12T02:35:53.408Z,0.00
2023-11-12T02:36:53.665Z,0.00
2023-11-12T02:37:53.344Z,0.00
2023-11-12T02:38:53.363Z,0.00
2023-11-12T02:39:53.320Z,0.00
2023-11-12T02:40:53.376Z,0.00
2023-11-12T02:41:53.504Z,0.00
2023-11-12T02:42:53.325Z,0.00
2023-11-12T02:43:53.266Z,0.00
2023-11-12T02:44:53.233Z,0.00
2023-11-12T02:45:53.230Z,0.00
2023-11-12T02:46:53.271Z,0.00
2023-11-12T02:47:53.729Z,0.00
2023-11-12T02:48:53.182Z,0.00
2023-11-12T02:49:53.172Z,0.00
2023-11-12T02:50:53.155Z,0.00
2023-11-12T02:51:53.165Z,0.00
2023-11-12T02:52:55.611Z,0.00
2023-11-12T02:53:53.207Z,0.00
2023-11-12T02:54:53.097Z,0.00
2023-11-12T02:55:53.143Z,0.00
2023-11-12T02:56:53.116Z,0.00
2023-11-12T02:57:53.506Z,0.00
2023-11-12T02:58:53.064Z,0.00
2023-11-12T02:59:54.435Z,0.00
2023-11-12T03:00:53.117Z,0.00
2023-11-12T03:01:53.029Z,0.00
2023-11-12T03:02:53.110Z,0.00
2023-11-12T03:03:53.122Z,0.00
2023-11-12T03:04:53.025Z,0.00
2023-11-12T03:05:53.028Z,0.00
2023-11-12T03:06:52.974Z,0.00
2023-11-12T03:07:52.939Z,0.00
2023-11-12T03:08:52.989Z,0.00
2023-11-12T03:09:52.891Z,0.00
2023-11-12T03:10:54.316Z,0.00
2023-11-12T03:11:53.019Z,0.00
2023-11-12T03:12:52.854Z,0.00
2023-11-12T03:13:53.578Z,0.00
2023-11-12T03:14:53.035Z,0.00
2023-11-12T03:15:55.277Z,0.00
2023-11-12T03:16:54.238Z,0.00
2023-11-12T03:17:52.870Z,0.00
2023-11-12T03:18:52.973Z,0.00
2023-11-12T03:19:52.962Z,0.00
2023-11-12T03:20:52.745Z,0.00
2023-11-12T03:21:52.980Z,0.00
2023-11-12T03:22:52.735Z,0.00
2023-11-12T03:23:53.416Z,0.00
2023-11-12T03:24:52.708Z,0.00
2023-11-12T03:25:52.669Z,0.00
2023-11-12T03:26:53.391Z,0.00
2023-11-12T03:27:52.951Z,0.00
2023-11-12T03:28:53.335Z,0.00
2023-11-12T03:29:53.393Z,0.00
2023-11-12T03:30:52.682Z,0.00
2023-11-12T03:31:52.627Z,0.00
2023-11-12T03:32:54.080Z,0.00
2023-11-12T03:33:54.059Z,0.00
2023-11-12T03:34:53.974Z,0.00
2023-11-12T03:35:52.550Z,0.00
2023-11-12T03:36:52.596Z,0.00
2023-11-12T03:37:53.931Z,0.00
2023-11-12T03:38:52.532Z,0.00
2023-11-12T03:39:53.299Z,0.00
2023-11-12T03:40:53.889Z,0.00
2023-11-12T03:41:52.482Z,0.00
2023-11-12T03:42:53.865Z,0.00
2023-11-12T03:43:52.476Z,0.00
2023-11-12T03:44:52.415Z,0.00
2023-11-12T03:45:53.149Z,0.00
2023-11-12T03:46:52.472Z,0.00
2023-11-12T03:47:53.818Z,0.00
2023-11-12T03:48:53.111Z,0.00
2023-11-12T03:49:52.386Z,0.00
2023-11-12T03:50:52.373Z,0.00
2023-11-12T03:51:52.333Z,0.00
2023-11-12T03:52:52.327Z,0.00
2023-11-12T03:53:54.782Z,0.00
2023-11-12T03:54:52.285Z,0.00
2023-11-12T03:55:53.022Z,0.00
2023-11-12T03:56:52.293Z,0.00
2023-11-12T03:57:52.272Z,0.00
2023-11-12T03:58:53.654Z,0.00
2023-11-12T03:59:52.244Z,0.00
2023-11-12T04:00:52.269Z,0.00
2023-11-12T04:01:53.604Z,0.00
2023-11-12T04:02:52.321Z,0.00
2023-11-12T04:03:54.041Z,0.00
2023-11-12T04:04:53.783Z,0.00
2023-11-12T04:05:52.187Z,0.00
2023-11-12T04:06:52.651Z,0.00
2023-11-12T04:07:53.097Z,0.00
2023-11-12T04:08:52.162Z,0.00
2023-11-12T04:09:52.664Z,0.00
2023-11-12T04:10:52.069Z,0.00
2023-11-12T04:11:52.670Z,0.00
2023-11-12T04:12:52.808Z,0.00
2023-11-12T04:13:52.061Z,0.00
2023-11-12T04:14:52.803Z,0.00
2023-11-12T04:15:52.074Z,0.00
2023-11-12T04:16:52.007Z,0.00
2023-11-12T04:17:52.372Z,0.00
2023-11-12T04:18:51.991Z,0.00
2023-11-12T04:19:52.755Z,0.00
2023-11-12T04:20:52.679Z,0.00
2023-11-12T04:21:51.970Z,0.00
2023-11-12T04:22:51.911Z,0.00
2023-11-12T04:23:51.898Z,0.00
2023-11-12T04:24:51.886Z,0.00
2023-11-12T04:25:52.610Z,0.00
2023-11-12T04:26:52.520Z,0.00
2023-11-12T04:27:52.607Z,0.00
2023-11-12T04:28:53.791Z,0.00
2023-11-12T04:29:52.497Z,0.00
2023-11-12T04:30:52.590Z,0.00
2023-11-12T04:31:51.821Z,0.00
2023-11-12T04:32:51.846Z,0.00
2023-11-12T04:33:52.555Z,0.00
2023-11-12T04:34:51.780Z,0.00
2023-11-12T04:35:53.165Z,0.00
2023-11-12T04:36:53.151Z,0.00
2023-11-12T04:37:51.754Z,0.00
2023-11-12T04:38:53.112Z,0.00
2023-11-12T04:39:52.447Z,0.00
2023-11-12T04:40:51.686Z,0.00
2023-11-12T04:41:52.415Z,0.00
2023-11-12T04:42:51.668Z,0.00
2023-11-12T04:43:51.664Z,0.00
2023-11-12T04:44:52.357Z,0.00
2023-11-12T04:45:51.698Z,0.00
2023-11-12T04:46:53.015Z,0.00
2023-11-12T04:47:51.632Z,0.00
2023-11-12T04:48:51.841Z,0.00
2023-11-12T04:49:52.947Z,0.00
2023-11-12T04:50:51.565Z,0.00
2023-11-12T04:51:52.308Z,0.00
2023-11-12T04:52:52.303Z,0.00
2023-11-12T04:53:51.566Z,0.00
2023-11-12T04:54:52.901Z,0.00
2023-11-12T04:55:52.221Z,0.00
2023-11-12T04:56:51.470Z,0.00
2023-11-12T04:57:51.650Z,0.00
2023-11-12T04:58:51.439Z,0.00
2023-11-12T04:59:52.840Z,0.00
2023-11-12T05:00:52.180Z,0.00
2023-11-12T05:01:51.449Z,0.00
2023-11-12T05:02:52.120Z,0.00
2023-11-12T05:03:51.442Z,0.00
2023-11-12T05:04:51.366Z,0.00
2023-11-12T05:05:51.832Z,0.00
2023-11-12T05:06:51.328Z,0.00
2023-11-12T05:07:51.981Z,0.00
2023-11-12T05:08:52.705Z,0.00
2023-11-12T05:09:51.291Z,0.00
2023-11-12T05:10:52.687Z,0.00
2023-11-12T05:11:51.947Z,0.00
2023-11-12T05:12:51.273Z,0.00
2023-11-12T05:13:51.779Z,0.00
2023-11-12T05:14:51.248Z,0.00
2023-11-12T05:15:51.816Z,0.00
2023-11-12T05:16:51.794Z,0.00
2023-11-12T05:17:51.780Z,0.00
2023-11-12T05:18:52.617Z,0.00
2023-11-12T05:19:51.159Z,0.00
2023-11-12T05:20:51.142Z,0.00
2023-11-12T05:21:51.123Z,0.00
2023-11-12T05:22:51.104Z,0.00
2023-11-12T05:23:51.763Z,0.00
2023-11-12T05:24:52.655Z,0.00
2023-11-12T05:25:51.076Z,0.00
2023-11-12T05:26:52.460Z,0.00
2023-11-12T05:27:51.043Z,0.00
2023-11-12T05:28:51.076Z,0.00
2023-11-12T05:29:51.022Z,0.00
2023-11-12T05:30:51.056Z,0.00
2023-11-12T05:31:51.021Z,0.00
2023-11-12T05:32:51.107Z,0.00
2023-11-12T05:33:51.067Z,0.00
2023-11-12T05:34:51.729Z,0.00
2023-11-12T05:35:50.949Z,0.00
2023-11-12T05:36:51.683Z,0.00
2023-11-12T05:37:51.669Z,0.00
2023-11-12T05:38:50.910Z,0.00
2023-11-12T05:39:52.284Z,0.00
2023-11-12T05:40:51.659Z,0.00
2023-11-12T05:41:50.862Z,0.00
2023-11-12T05:42:52.243Z,0.00
2023-11-12T05:43:50.827Z,0.00
2023-11-12T05:44:52.209Z,0.00
2023-11-12T05:45:51.057Z,0.00
2023-11-12T05:46:50.823Z,0.00
2023-11-12T05:47:51.558Z,0.00
2023-11-12T05:48:50.789Z,0.00
2023-11-12T05:49:50.737Z,0.00
2023-11-12T05:50:51.473Z,0.00
2023-11-12T05:51:50.734Z,0.00
2023-11-12T05:52:52.656Z,0.00
2023-11-12T05:53:50.706Z,0.00
2023-11-12T05:54:50.705Z,0.00
2023-11-12T05:55:52.077Z,0.00
2023-11-12T05:56:52.074Z,0.00
2023-11-12T05:57:50.687Z,0.00
2023-11-12T05:58:52.022Z,0.00
2023-11-12T05:59:50.631Z,0.00
2023-11-12T06:00:50.638Z,0.00
2023-11-12T06:01:50.620Z,4.00
2023-11-12T06:02:50.601Z,4.00
2023-11-12T06:03:52.052Z,0.00
2023-11-12T06:04:50.572Z,4.00
2023-11-12T06:05:50.527Z,4.00
2023-11-12T06:06:51.261Z,4.00
2023-11-12T06:07:51.209Z,4.00
2023-11-12T06:08:50.511Z,4.00
2023-11-12T06:09:51.944Z,8.00
2023-11-12T06:10:50.506Z,8.00
2023-11-12T06:11:50.801Z,8.00
2023-11-12T06:12:50.806Z,12.00
2023-11-12T06:13:50.422Z,8.00
2023-11-12T06:14:51.818Z,12.00
2023-11-12T06:15:50.444Z,20.00
2023-11-12T06:16:51.834Z,20.00
2023-11-12T06:17:50.393Z,24.00
2023-11-12T06:18:50.458Z,28.00
2023-11-12T06:19:50.409Z,32.00
2023-11-12T06:20:50.575Z,40.00
2023-11-12T06:21:50.337Z,44.00
2023-11-12T06:22:51.701Z,52.00
2023-11-12T06:23:50.961Z,64.00
2023-11-12T06:24:51.018Z,76.00
2023-11-12T06:25:50.259Z,88.00
2023-11-12T06:26:50.789Z,104.00
2023-11-12T06:27:50.845Z,120.00
2023-11-12T06:28:51.206Z,132.00
2023-11-12T06:29:50.251Z,148.00
2023-11-12T06:30:50.969Z,164.00
2023-11-12T06:31:50.192Z,176.00
2023-11-12T06:32:50.246Z,196.00
2023-11-12T06:33:50.213Z,216.00
2023-11-12T06:34:50.137Z,232.00
2023-11-12T06:35:52.083Z,256.00
2023-11-12T06:36:51.562Z,276.00
2023-11-12T06:37:50.102Z,308.00
2023-11-12T06:38:55.463Z,340.00
2023-11-12T06:39:50.099Z,376.00
2023-11-12T06:40:52.033Z,416.00
2023-11-12T06:41:50.079Z,452.00
2023-11-12T06:42:50.211Z,500.00
2023-11-12T06:43:51.995Z,548.00
2023-11-12T06:44:52.001Z,584.00
2023-11-12T06:45:50.046Z,628.00
2023-11-12T06:46:50.041Z,668.00
2023-11-12T06:47:50.050Z,708.00
2023-11-12T06:48:50.799Z,748.00
2023-11-12T06:49:49.955Z,800.00
2023-11-12T06:50:50.665Z,864.00
2023-11-12T06:51:50.816Z,924.00
2023-11-12T06:52:49.951Z,1000.00
2023-11-12T06:53:51.836Z,1112.00
2023-11-12T06:54:50.727Z,1216.00
2023-11-12T06:55:49.855Z,1308.00
2023-11-12T06:56:51.252Z,1376.00
2023-11-12T06:57:50.896Z,1440.00
2023-11-12T06:58:49.856Z,1548.00
2023-11-12T06:59:50.571Z,1612.00
2023-11-12T07:00:49.940Z,1700.00
2023-11-12T07:01:50.509Z,1780.00
2023-11-12T07:02:49.829Z,1848.00
2023-11-12T07:03:49.820Z,1920.00
2023-11-12T07:04:49.749Z,1924.00
2023-11-12T07:05:49.785Z,1940.00
2023-11-12T07:07:01.306Z,1936.00
2023-11-12T07:07:51.686Z,1988.00
2023-11-12T07:08:49.722Z,2080.00
2023-11-12T07:09:49.692Z,2204.00
2023-11-12T07:10:49.668Z,2340.00
2023-11-12T07:11:49.661Z,2428.00
2023-11-12T07:12:50.406Z,2608.00
2023-11-12T07:13:49.656Z,2792.00
2023-11-12T07:14:51.015Z,2964.00
2023-11-12T07:15:49.684Z,3192.00
2023-11-12T07:16:49.592Z,3340.00
2023-11-12T07:17:49.587Z,3452.00
2023-11-12T07:18:54.061Z,3628.00
2023-11-12T07:19:50.570Z,3680.00
2023-11-12T07:20:50.961Z,3872.00
2023-11-12T07:21:49.574Z,3928.00
2023-11-12T07:22:49.534Z,3832.00
2023-11-12T07:23:49.988Z,3864.00
2023-11-12T07:24:49.492Z,3956.00
2023-11-12T07:25:49.569Z,4168.00
2023-11-12T07:26:49.921Z,4392.00
2023-11-12T07:27:49.513Z,4600.00
2023-11-12T07:28:49.959Z,4648.00
2023-11-12T07:29:50.175Z,4700.00
2023-11-12T07:30:49.533Z,4656.00
2023-11-12T07:31:49.964Z,4424.00
2023-11-12T07:32:49.461Z,4236.00
2023-11-12T07:33:49.950Z,4040.00
2023-11-12T07:34:49.981Z,3900.00
2023-11-12T07:35:49.372Z,3832.00
2023-11-12T07:36:50.743Z,3768.00
2023-11-12T07:37:49.334Z,3696.00
2023-11-12T07:38:50.080Z,3672.00
2023-11-12T07:39:50.059Z,3624.00
2023-11-12T07:40:49.998Z,3568.00
2023-11-12T07:41:49.467Z,3516.00
2023-11-12T07:42:50.003Z,3452.00
2023-11-12T07:43:49.281Z,3416.00
2023-11-12T07:44:54.494Z,3380.00
2023-11-12T07:45:50.408Z,3416.00
2023-11-12T07:46:50.651Z,3464.00
2023-11-12T07:47:50.636Z,3604.00
2023-11-12T07:48:49.190Z,3684.00
2023-11-12T07:49:49.166Z,3784.00
2023-11-12T07:50:49.288Z,3796.00
2023-11-12T07:51:49.144Z,3796.00
2023-11-12T07:52:50.533Z,3820.00
2023-11-12T07:53:49.134Z,3952.00
2023-11-12T07:54:51.453Z,4080.00
2023-11-12T07:55:49.803Z,4316.00
2023-11-12T07:56:49.069Z,4580.00
2023-11-12T07:57:49.054Z,4852.00
2023-11-12T07:58:49.060Z,5152.00
2023-11-12T07:59:49.032Z,5348.00
2023-11-12T08:00:50.434Z,5520.00
2023-11-12T08:01:49.038Z,5728.00
2023-11-12T08:02:49.276Z,6008.00
2023-11-12T08:03:49.747Z,6288.00
2023-11-12T08:04:48.968Z,6540.00
2023-11-12T08:05:49.763Z,6884.00
2023-11-12T08:06:49.017Z,7080.00
2023-11-12T08:07:48.948Z,7268.00
2023-11-12T08:08:50.299Z,7476.00
2023-11-12T08:09:49.030Z,7640.00
2023-11-12T08:10:48.858Z,7976.00
2023-11-12T08:11:49.606Z,8276.00
2023-11-12T08:12:48.885Z,8608.00
2023-11-12T08:13:48.834Z,8776.00
2023-11-12T08:14:48.840Z,8864.00
2023-11-12T08:15:48.828Z,8816.00
2023-11-12T08:16:48.779Z,9016.00
2023-11-12T08:17:48.878Z,9292.00
2023-11-12T08:18:48.785Z,9624.00
2023-11-12T08:19:50.158Z,9848.00
2023-11-12T08:20:48.739Z,10032.00
2023-11-12T08:21:48.748Z,10212.00
2023-11-12T08:22:48.704Z,10440.00
2023-11-12T08:23:48.678Z,10744.00
2023-11-12T08:24:49.052Z,10924.00
2023-11-12T08:25:48.667Z,11164.00
2023-11-12T08:26:49.473Z,11488.00
2023-11-12T08:27:50.111Z,11496.00
2023-11-12T08:28:48.639Z,10772.00
2023-11-12T08:29:48.592Z,9132.00
2023-11-12T08:30:48.634Z,7320.00
2023-11-12T08:31:48.621Z,6364.00
2023-11-12T08:32:51.065Z,5420.00
2023-11-12T08:33:48.608Z,4620.00
2023-11-12T08:34:48.561Z,4036.00
2023-11-12T08:35:48.870Z,3604.00
2023-11-12T08:36:48.588Z,3296.00
2023-11-12T08:37:49.003Z,3200.00
2023-11-12T08:38:48.587Z,3312.00
2023-11-12T08:39:48.508Z,3456.00
2023-11-12T08:40:48.976Z,3572.00
2023-11-12T08:41:48.443Z,3732.00
2023-11-12T08:42:49.897Z,3880.00
2023-11-12T08:43:50.391Z,4036.00
2023-11-12T08:44:48.424Z,4320.00
2023-11-12T08:45:49.103Z,4544.00
2023-11-12T08:46:50.081Z,4616.00
2023-11-12T08:47:48.432Z,4796.00
2023-11-12T08:48:49.112Z,5016.00
2023-11-12T08:49:48.366Z,5348.00
2023-11-12T08:50:48.339Z,5572.00
2023-11-12T08:51:49.031Z,5656.00
2023-11-12T08:52:48.328Z,5860.00
2023-11-12T08:53:48.278Z,6076.00
2023-11-12T08:54:48.317Z,6436.00
2023-11-12T08:55:48.253Z,6752.00
2023-11-12T08:56:49.001Z,6992.00
2023-11-12T08:57:48.305Z,7208.00
2023-11-12T08:58:48.960Z,7576.00
2023-11-12T08:59:48.634Z,7940.00
2023-11-12T09:00:48.222Z,8344.00
2023-11-12T09:01:48.987Z,8704.00
2023-11-12T09:02:48.905Z,8960.00
2023-11-12T09:03:48.259Z,9124.00
2023-11-12T09:04:48.899Z,9184.00
2023-11-12T09:05:48.135Z,9296.00
2023-11-12T09:06:50.157Z,9468.00
2023-11-12T09:07:50.114Z,9676.00
2023-11-12T09:08:48.106Z,9860.00
2023-11-12T09:09:48.090Z,10004.00
2023-11-12T09:10:48.055Z,10116.00
2023-11-12T09:11:48.710Z,10256.00
2023-11-12T09:12:48.056Z,10392.00
2023-11-12T09:13:48.021Z,10652.00
2023-11-12T09:14:48.786Z,10968.00
2023-11-12T09:15:48.068Z,11188.00
2023-11-12T09:16:48.045Z,11324.00
2023-11-12T09:17:49.408Z,11316.00
2023-11-12T09:18:48.065Z,11176.00
2023-11-12T09:19:47.928Z,11148.00
2023-11-12T09:20:52.104Z,11148.00
2023-11-12T09:21:47.997Z,11224.00
2023-11-12T09:22:49.301Z,11384.00
2023-11-12T09:23:49.286Z,11664.00
2023-11-12T09:25:00.751Z,11768.00
2023-11-12T09:25:49.572Z,11796.00
2023-11-12T09:26:47.878Z,11720.00
2023-11-12T09:27:47.900Z,11656.00
2023-11-12T09:28:47.813Z,11576.00
2023-11-12T09:29:47.817Z,11496.00
2023-11-12T09:30:57.512Z,11480.00
2023-11-12T09:31:51.143Z,11436.00
2023-11-12T09:32:47.844Z,11356.00
2023-11-12T09:33:49.740Z,11332.00
2023-11-12T09:34:47.742Z,11388.00
2023-11-12T09:35:47.717Z,11444.00
2023-11-12T09:36:48.482Z,11380.00
2023-11-12T09:37:47.697Z,11328.00
2023-11-12T09:38:48.128Z,11168.00
2023-11-12T09:39:48.057Z,11084.00
2023-11-12T09:40:47.661Z,11024.00
2023-11-12T09:41:48.142Z,11020.00
2023-11-12T09:42:47.629Z,11036.00
2023-11-12T09:43:48.332Z,11032.00
2023-11-12T09:44:48.189Z,11028.00
2023-11-12T09:45:47.615Z,10952.00
2023-11-12T09:46:48.168Z,10876.00
2023-11-12T09:47:48.983Z,10856.00
2023-11-12T09:48:47.583Z,10900.00
2023-11-12T09:49:48.315Z,11040.00
2023-11-12T09:50:48.210Z,11208.00
2023-11-12T09:51:47.557Z,11524.00
2023-11-12T09:52:47.509Z,11844.00
2023-11-12T09:53:47.479Z,12020.00
2023-11-12T09:54:48.243Z,12092.00
2023-11-12T09:55:48.861Z,12168.00
2023-11-12T09:56:51.061Z,12228.00
2023-11-12T09:57:47.511Z,12216.00
2023-11-12T09:58:47.402Z,12088.00
2023-11-12T09:59:47.405Z,11892.00
2023-11-12T10:00:47.476Z,11656.00
2023-11-12T10:01:47.426Z,11440.00
2023-11-12T10:02:49.922Z,11280.00
2023-11-12T10:03:48.941Z,11204.00
2023-11-12T10:04:47.454Z,11240.00
2023-11-12T10:05:48.721Z,11348.00
2023-11-12T10:06:47.365Z,11552.00
2023-11-12T10:07:47.278Z,11824.00
2023-11-12T10:08:47.275Z,12064.00
2023-11-12T10:09:47.293Z,12284.00
2023-11-12T10:10:48.655Z,12520.00
2023-11-12T10:11:47.361Z,12788.00
2023-11-12T10:12:47.302Z,13028.00
2023-11-12T10:13:49.676Z,13280.00
2023-11-12T10:14:47.220Z,13516.00
2023-11-12T10:15:47.206Z,13744.00
2023-11-12T10:16:47.220Z,14004.00
2023-11-12T10:17:47.164Z,14296.00
2023-11-12T10:18:48.610Z,14600.00
2023-11-12T10:19:47.290Z,14844.00
2023-11-12T10:20:47.122Z,15004.00
2023-11-12T10:21:47.827Z,15048.00
2023-11-12T10:22:47.076Z,15032.00
2023-11-12T10:23:47.066Z,15044.00
2023-11-12T10:24:48.525Z,15012.00
2023-11-12T10:25:47.061Z,15020.00
2023-11-12T10:26:48.393Z,15056.00
2023-11-12T10:27:47.114Z,15176.00
2023-11-12T10:28:47.012Z,15368.00
2023-11-12T10:29:47.736Z,15644.00
2023-11-12T10:30:47.042Z,15940.00
2023-11-12T10:31:47.014Z,16192.00
2023-11-12T10:32:46.956Z,16316.00
2023-11-12T10:33:46.948Z,16296.00
2023-11-12T10:34:47.643Z,16144.00
2023-11-12T10:35:46.962Z,15896.00
2023-11-12T10:36:46.932Z,15580.00
2023-11-12T10:37:48.276Z,15288.00
2023-11-12T10:38:46.904Z,15052.00
2023-11-12T10:39:46.904Z,14916.00
2023-11-12T10:40:46.843Z,14880.00
2023-11-12T10:41:46.828Z,14904.00
2023-11-12T10:42:48.792Z,14976.00
2023-11-12T10:43:47.551Z,15040.00
2023-11-12T10:44:47.482Z,15036.00
2023-11-12T10:45:49.279Z,15000.00
2023-11-12T10:46:46.789Z,14984.00
2023-11-12T10:47:46.868Z,15000.00
2023-11-12T10:48:47.547Z,15096.00
2023-11-12T10:49:46.720Z,15276.00
2023-11-12T10:50:48.102Z,15540.00
2023-11-12T10:51:46.723Z,15868.00
2023-11-12T10:52:46.718Z,16164.00
2023-11-12T10:53:48.090Z,16320.00
2023-11-12T10:54:46.699Z,16268.00
2023-11-12T10:55:46.621Z,16060.00
2023-11-12T10:56:46.626Z,15804.00
2023-11-12T10:57:46.763Z,15632.00
2023-11-12T10:58:46.957Z,15600.00
2023-11-12T10:59:46.584Z,15740.00
2023-11-12T11:00:48.532Z,15976.00
2023-11-12T11:01:47.299Z,16268.00
2023-11-12T11:02:46.587Z,16516.00
2023-11-12T11:03:46.623Z,16928.00
2023-11-12T11:04:46.777Z,17280.00
2023-11-12T11:05:46.499Z,17440.00
2023-11-12T11:06:47.215Z,17376.00
2023-11-12T11:07:48.168Z,17056.00
2023-11-12T11:08:46.449Z,16672.00
2023-11-12T11:09:47.177Z,16196.00
2023-11-12T11:10:46.428Z,16108.00
2023-11-12T11:11:46.422Z,16176.00
2023-11-12T11:12:46.423Z,16392.00
2023-11-12T11:13:47.813Z,16800.00
2023-11-12T11:14:48.381Z,16992.00
2023-11-12T11:15:46.401Z,17312.00
2023-11-12T11:16:48.460Z,17568.00
2023-11-12T11:17:48.328Z,17760.00
2023-11-12T11:18:48.152Z,17824.00
2023-11-12T11:19:46.587Z,17760.00
2023-11-12T11:20:47.079Z,17728.00
2023-11-12T11:21:48.336Z,17792.00
2023-11-12T11:22:47.708Z,18080.00
2023-11-12T11:23:46.290Z,18464.00
2023-11-12T11:24:47.705Z,18496.00
2023-11-12T11:25:47.218Z,18112.00
2023-11-12T11:26:46.260Z,17536.00
2023-11-12T11:27:46.289Z,16960.00
2023-11-12T11:28:46.252Z,16584.00
2023-11-12T11:29:47.619Z,16576.00
2023-11-12T11:30:47.675Z,17024.00
2023-11-12T11:31:47.147Z,17504.00
2023-11-12T11:32:47.652Z,17952.00
2023-11-12T11:33:47.570Z,18368.00
2023-11-12T11:34:46.167Z,18656.00
2023-11-12T11:35:46.154Z,18720.00
2023-11-12T11:36:47.026Z,18432.00
2023-11-12T11:37:47.578Z,17824.00
2023-11-12T11:38:47.479Z,17312.00
2023-11-12T11:39:46.186Z,17056.00
2023-11-12T11:40:46.276Z,16928.00
2023-11-12T11:41:46.059Z,17056.00
2023-11-12T11:42:46.068Z,17664.00
2023-11-12T11:43:46.211Z,18624.00
2023-11-12T11:44:46.079Z,19552.00
2023-11-12T11:45:47.556Z,20288.00
2023-11-12T11:46:47.447Z,20576.00
2023-11-12T11:47:45.988Z,20320.00
2023-11-12T11:48:46.009Z,19488.00
2023-11-12T11:49:47.419Z,18432.00
2023-11-12T11:50:47.689Z,17376.00
2023-11-12T11:51:45.927Z,16384.00
2023-11-12T11:52:46.625Z,15828.00
2023-11-12T11:53:47.313Z,15428.00
2023-11-12T11:54:48.634Z,15052.00
2023-11-12T11:55:46.847Z,14572.00
2023-11-12T11:56:46.565Z,13960.00
2023-11-12T11:57:46.539Z,13268.00
2023-11-12T11:58:46.525Z,12480.00
2023-11-12T11:59:48.245Z,11688.00
2023-11-12T12:00:45.830Z,10996.00
2023-11-12T12:01:47.901Z,10528.00
2023-11-12T12:02:46.682Z,10328.00
2023-11-12T12:03:47.674Z,10404.00
2023-11-12T12:04:46.501Z,10696.00
2023-11-12T12:05:46.395Z,11108.00
2023-11-12T12:06:46.721Z,11516.00
2023-11-12T12:07:45.818Z,11876.00
2023-11-12T12:08:45.757Z,12152.00
2023-11-12T12:09:47.083Z,12372.00
2023-11-12T12:10:48.320Z,12664.00
2023-11-12T12:11:45.650Z,13088.00
2023-11-12T12:12:48.105Z,13624.00
2023-11-12T12:13:46.347Z,14092.00
2023-11-12T12:14:45.696Z,14320.00
2023-11-12T12:15:45.615Z,14264.00
2023-11-12T12:16:46.857Z,14044.00
2023-11-12T12:17:48.239Z,13824.00
2023-11-12T12:18:45.610Z,13788.00
2023-11-12T12:19:46.222Z,13992.00
2023-11-12T12:20:47.279Z,14408.00
2023-11-12T12:21:46.512Z,15000.00
2023-11-12T12:22:46.110Z,15660.00
2023-11-12T12:23:47.936Z,16268.00
2023-11-12T12:24:46.206Z,16896.00
2023-11-12T12:25:46.839Z,17056.00
2023-11-12T12:26:48.093Z,17024.00
2023-11-12T12:27:45.536Z,16704.00
2023-11-12T12:28:46.791Z,16064.00
2023-11-12T12:29:47.308Z,15556.00
2023-11-12T12:30:45.409Z,15080.00
2023-11-12T12:31:46.160Z,14624.00
2023-11-12T12:32:45.385Z,14220.00
2023-11-12T12:33:48.082Z,13828.00
2023-11-12T12:34:46.734Z,13360.00